Icaro — 3FGV3 — position and weather

sailwx.info

Track history (hours):
 
Tides and Currents Weather Stations Pressure Air Temp Water Temp Dewpoint Dewpoint Depression Visibility Wind Speed Wind Dir Waves Ship Positions

Icaro

Last reported at 2018-Feb-26 23:21 UTC. Time now 2018-Apr-21 19:25 UTC.
Position N 16°10' W 062°29'.
Warning: this ship's position is 53 days out of date.

Length 244 m; draft 8.5 m.

Type: Tanker. MMSI: 352269000.

Date/timePositionNaut miles runAvg speedWind from/ knotsBaromVisibWave heightAir tempDewpointWater temp
2018-Feb-26 23:21N 16°10' W 062°29'412.1
2018-Feb-26 23:00N 16°13' W 062°26'612.1
2018-Feb-26 22:30N 16°17' W 062°21'612.1
2018-Feb-26 22:01N 16°21' W 062°17'612.0
2018-Feb-26 21:31N 16°25' W 062°12'611.8
2018-Feb-26 21:00N 16°29' W 062°08'612.5
2018-Feb-26 20:30N 16°32' W 062°02'612.3
2018-Feb-26 20:01N 16°35' W 061°56'612.0
2018-Feb-26 19:30N 16°37' W 061°50'612.2
2018-Feb-26 19:00N 16°40' W 061°44'612.4
2018-Feb-26 18:30N 16°42' W 061°39'612.6
2018-Feb-26 18:00N 16°45' W 061°33'713.1
2018-Feb-26 17:31N 16°48' W 061°27'713.3
2018-Feb-26 17:00N 16°51' W 061°20'713.5
2018-Feb-26 16:30N 16°54' W 061°14'713.5
2018-Feb-26 16:00N 16°56' W 061°07'713.1
2018-Feb-26 15:30N 16°60' W 061°01'713.0
2018-Feb-26 15:00N 17°03' W 060°55'  
Track history (hours):
 
Tides and Currents Weather Stations Pressure Air Temp Water Temp Dewpoint Dewpoint Depression Visibility Wind Speed Wind Dir Waves Ship Positions

Icaro

Last reported at 2018-Feb-26 23:21 UTC. Time now 2018-Apr-21 19:25 UTC.
Position N 16°10' W 062°29'.
Warning: this ship's position is 53 days out of date.

Length 244 m; draft 8.5 m.

Type: Tanker. MMSI: 352269000.

Date/timePositionNaut miles runAvg speedWind from/ knotsBaromVisibWave heightAir tempDewpointWater temp
2018-Feb-26 23:21N 16°10' W 062°29'412.1
2018-Feb-26 23:00N 16°13' W 062°26'612.1
2018-Feb-26 22:30N 16°17' W 062°21'612.1
2018-Feb-26 22:01N 16°21' W 062°17'612.0
2018-Feb-26 21:31N 16°25' W 062°12'611.8
2018-Feb-26 21:00N 16°29' W 062°08'612.5
2018-Feb-26 20:30N 16°32' W 062°02'612.3
2018-Feb-26 20:01N 16°35' W 061°56'612.0
2018-Feb-26 19:30N 16°37' W 061°50'612.2
2018-Feb-26 19:00N 16°40' W 061°44'612.4
2018-Feb-26 18:30N 16°42' W 061°39'612.6
2018-Feb-26 18:00N 16°45' W 061°33'713.1
2018-Feb-26 17:31N 16°48' W 061°27'713.3
2018-Feb-26 17:00N 16°51' W 061°20'713.5
2018-Feb-26 16:30N 16°54' W 061°14'713.5
2018-Feb-26 16:00N 16°56' W 061°07'713.1
2018-Feb-26 15:30N 16°60' W 061°01'713.0
2018-Feb-26 15:00N 17°03' W 060°55'  

Dump ship's entire track history